Time;durP1;ratioP1;P1;durP2;ratioP2;P2;SDS_P1;SDS_P2;PMS_P1;PMS_P2;Temp;Humidity;BMP_temperature;BMP_pressure;BME280_temperature;BME280_humidity;BME280_pressure;Samples;Min_cycle;Max_cycle;Signal;HPM_P1;HPM_P2
2023/11/01 00:00:53;;;;;;;29.60;16.67;;;10.40;99.90;;;;;;5039365;28;20037;-73
2023/11/01 00:03:18;;;;;;;31.20;17.45;;;10.40;99.90;;;;;;5062050;28;20060;-73
2023/11/01 00:05:46;;;;;;;32.85;17.52;;;10.40;99.90;;;;;;5067412;28;20048;-73
2023/11/01 00:08:12;;;;;;;29.65;17.40;;;10.40;99.90;;;;;;5062466;28;20048;-73
2023/11/01 00:10:38;;;;;;;35.53;18.80;;;10.40;99.90;;;;;;5044675;28;20040;-73
2023/11/01 00:13:04;;;;;;;32.92;17.92;;;10.50;99.90;;;;;;5056977;28;20047;-73
2023/11/01 00:15:31;;;;;;;32.63;17.60;;;10.50;99.90;;;;;;5039567;28;20052;-73
2023/11/01 00:17:58;;;;;;;33.60;17.38;;;10.50;99.90;;;;;;5059081;28;20509;-73
2023/11/01 00:20:24;;;;;;;30.10;17.27;;;10.50;99.90;;;;;;5030717;28;20067;-74
2023/11/01 00:22:50;;;;;;;32.88;18.67;;;10.50;99.90;;;;;;5059729;28;20044;-74
2023/11/01 00:25:16;;;;;;;30.73;17.45;;;10.50;99.90;;;;;;5058572;28;20040;-73
2023/11/01 00:27:41;;;;;;;33.38;17.95;;;10.50;99.90;;;;;;5067428;28;20032;-73
2023/11/01 00:30:07;;;;;;;29.50;16.67;;;10.40;99.90;;;;;;5054770;28;20115;-73
2023/11/01 00:32:33;;;;;;;24.65;16.65;;;10.40;99.90;;;;;;5051861;28;20052;-73
2023/11/01 00:34:58;;;;;;;33.83;16.98;;;10.40;99.90;;;;;;5056531;28;20044;-73
2023/11/01 00:37:24;;;;;;;29.15;17.00;;;10.40;99.90;;;;;;5040900;28;20039;-73
2023/11/01 00:39:49;;;;;;;28.20;16.63;;;10.40;99.90;;;;;;5067083;28;20032;-73
2023/11/01 00:42:16;;;;;;;28.98;16.52;;;10.40;99.90;;;;;;5056147;28;20097;-73
2023/11/01 00:44:45;;;;;;;29.63;17.58;;;10.30;99.90;;;;;;5052706;28;20028;-73
2023/11/01 00:47:11;;;;;;;27.00;16.92;;;10.30;99.90;;;;;;5058437;28;20041;-73
2023/11/01 00:49:37;;;;;;;29.23;17.35;;;10.30;99.90;;;;;;5066264;28;20451;-72
2023/11/01 00:52:07;;;;;;;28.73;16.17;;;10.30;99.90;;;;;;5052993;28;20037;-73
2023/11/01 00:54:32;;;;;;;24.38;15.90;;;10.30;99.90;;;;;;5057097;28;20056;-73
2023/11/01 00:56:58;;;;;;;30.33;16.80;;;10.30;99.90;;;;;;5061631;28;20040;-73
2023/11/01 00:59:24;;;;;;;28.67;16.50;;;10.30;99.90;;;;;;5051685;28;20401;-73
2023/11/01 01:01:49;;;;;;;28.73;16.27;;;10.30;99.90;;;;;;5056707;28;20520;-73
2023/11/01 01:04:15;;;;;;;26.67;16.23;;;10.30;99.90;;;;;;5052992;28;20037;-73
2023/11/01 01:06:41;;;;;;;24.35;15.75;;;10.30;99.90;;;;;;5061620;28;20051;-73
2023/11/01 01:09:08;;;;;;;26.20;15.27;;;10.20;99.90;;;;;;5044123;28;20044;-73
2023/11/01 01:11:34;;;;;;;24.80;15.00;;;10.20;99.90;;;;;;5040513;28;20075;-73
2023/11/01 01:14:00;;;;;;;23.58;14.82;;;10.20;99.90;;;;;;5064730;28;20113;-73
2023/11/01 01:16:25;;;;;;;25.63;15.25;;;10.20;99.90;;;;;;5056734;28;20163;-73
2023/11/01 01:18:51;;;;;;;26.05;14.45;;;10.20;99.90;;;;;;5059351;28;20520;-73
2023/11/01 01:21:17;;;;;;;24.08;14.32;;;10.20;99.90;;;;;;5052779;28;20512;-73
2023/11/01 01:23:43;;;;;;;25.17;14.88;;;10.20;99.90;;;;;;5040762;28;20034;-73
2023/11/01 01:26:08;;;;;;;25.70;14.75;;;10.20;99.90;;;;;;5059049;28;20041;-73
2023/11/01 01:28:34;;;;;;;26.58;14.23;;;10.20;99.90;;;;;;5050767;28;20071;-73
2023/11/01 01:30:59;;;;;;;22.52;13.80;;;10.20;99.90;;;;;;5054371;28;20517;-73
2023/11/01 01:33:25;;;;;;;22.05;14.13;;;10.20;99.90;;;;;;5064343;28;20663;-74
2023/11/01 01:35:51;;;;;;;20.60;13.77;;;10.20;99.90;;;;;;5063182;28;20520;-73
2023/11/01 01:38:17;;;;;;;22.90;13.85;;;10.20;99.90;;;;;;5044239;28;20528;-73
2023/11/01 01:40:43;;;;;;;20.58;12.75;;;10.20;99.90;;;;;;5054149;28;20040;-72
2023/11/01 01:43:21;;;;;;;21.25;12.85;;;10.20;99.90;;;;;;5057562;28;20040;-73
2023/11/01 01:46:09;;;;;;;22.65;12.88;;;10.20;99.90;;;;;;5054476;28;20428;-74
2023/11/01 01:48:35;;;;;;;21.00;13.38;;;10.30;99.90;;;;;;5048763;28;20055;-73
2023/11/01 01:51:04;;;;;;;21.33;13.20;;;10.30;99.90;;;;;;5038264;28;20040;-73
2023/11/01 01:53:36;;;;;;;23.02;13.02;;;10.30;99.90;;;;;;5043475;28;20094;-73
2023/11/01 01:56:04;;;;;;;21.95;12.48;;;10.30;99.90;;;;;;5056466;28;20049;-73
2023/11/01 01:58:36;;;;;;;22.00;12.95;;;10.40;99.90;;;;;;5062123;28;20048;-73
2023/11/01 02:01:01;;;;;;;25.98;13.85;;;10.40;99.90;;;;;;5048893;28;20041;-73
2023/11/01 02:03:28;;;;;;;21.20;12.18;;;10.40;99.90;;;;;;5037923;28;20044;-74
2023/11/01 02:05:55;;;;;;;20.85;12.90;;;10.40;99.90;;;;;;5063345;28;20528;-73
2023/11/01 02:08:22;;;;;;;20.50;12.20;;;10.40;99.90;;;;;;5031946;28;20044;-73
2023/11/01 02:10:47;;;;;;;21.17;12.27;;;10.40;99.90;;;;;;5059892;28;20103;-73
2023/11/01 02:13:16;;;;;;;25.30;12.20;;;10.40;99.90;;;;;;5034211;28;20051;-74
2023/11/01 02:15:44;;;;;;;19.00;12.70;;;10.40;99.90;;;;;;5064379;28;20086;-73
2023/11/01 02:18:13;;;;;;;19.92;11.85;;;10.40;99.90;;;;;;5059489;28;20043;-74
2023/11/01 02:20:41;;;;;;;19.55;12.02;;;10.60;99.90;;;;;;5046815;28;20048;-74
2023/11/01 02:23:16;;;;;;;17.70;11.68;;;10.30;99.90;;;;;;5045849;28;20119;-72
2023/11/01 02:25:43;;;;;;;20.27;12.60;;;10.30;99.90;;;;;;5026236;28;20033;-74
2023/11/01 02:28:12;;;;;;;20.55;12.00;;;10.30;99.90;;;;;;5038654;28;20506;-74
2023/11/01 02:30:39;;;;;;;20.08;11.45;;;10.20;99.90;;;;;;5060321;28;20033;-73
2023/11/01 02:33:06;;;;;;;21.42;11.88;;;10.30;99.90;;;;;;5044106;28;20107;-74
2023/11/01 02:35:32;;;;;;;21.00;11.82;;;10.30;99.90;;;;;;5039787;28;20051;-73
2023/11/01 02:37:58;;;;;;;20.05;11.88;;;10.20;99.90;;;;;;5050331;28;20039;-74
2023/11/01 02:40:23;;;;;;;22.20;12.95;;;10.20;99.90;;;;;;5049834;28;20033;-73
2023/11/01 02:42:51;;;;;;;20.70;13.52;;;10.20;99.90;;;;;;5058054;28;20568;-73
2023/11/01 02:45:17;;;;;;;22.13;12.77;;;10.20;99.90;;;;;;5062778;28;20043;-73
2023/11/01 02:47:43;;;;;;;27.13;13.57;;;10.30;99.90;;;;;;5051596;28;20112;-73
2023/11/01 02:50:12;;;;;;;26.63;15.02;;;10.20;99.90;;;;;;5065643;28;20033;-74
2023/11/01 02:52:38;;;;;;;29.02;14.98;;;10.20;99.90;;;;;;5055598;28;20037;-73
2023/11/01 02:55:13;;;;;;;25.70;15.27;;;10.40;99.90;;;;;;5040237;28;20040;-73
2023/11/01 02:57:42;;;;;;;28.58;14.88;;;10.20;99.90;;;;;;5056850;28;20496;-73
2023/11/01 03:00:21;;;;;;;32.72;15.50;;;10.30;99.90;;;;;;5061030;28;20042;-74
2023/11/01 03:02:50;;;;;;;28.73;15.30;;;10.30;99.90;;;;;;5055948;28;20143;-74
2023/11/01 03:05:16;;;;;;;27.58;15.05;;;10.30;99.90;;;;;;5058763;28;20434;-74
2023/11/01 03:07:41;;;;;;;30.17;15.85;;;10.40;99.90;;;;;;5062405;28;20053;-74
2023/11/01 03:10:11;;;;;;;29.63;15.10;;;10.40;99.90;;;;;;5045432;28;20501;-74
2023/11/01 03:12:40;;;;;;;28.08;15.93;;;10.40;99.90;;;;;;5055567;28;20404;-74
2023/11/01 03:15:10;;;;;;;29.60;15.35;;;10.40;99.90;;;;;;5054029;28;20465;-74
2023/11/01 03:17:36;;;;;;;28.73;15.93;;;10.40;99.90;;;;;;5058533;28;20497;-75
2023/11/01 03:20:03;;;;;;;34.20;15.63;;;10.50;99.90;;;;;;5055252;28;20064;-75
2023/11/01 03:22:29;;;;;;;33.78;15.38;;;10.50;99.90;;;;;;5062364;28;20032;-74
2023/11/01 03:24:54;;;;;;;34.45;14.88;;;10.50;99.90;;;;;;5046147;28;20696;-74
2023/11/01 03:27:21;;;;;;;31.52;14.88;;;10.50;99.90;;;;;;5043391;28;20064;-74
2023/11/01 03:29:46;;;;;;;33.10;14.82;;;10.50;99.90;;;;;;5050903;28;20402;-74
2023/11/01 03:32:12;;;;;;;30.35;15.15;;;10.60;99.90;;;;;;5043056;28;20033;-74
2023/11/01 03:34:38;;;;;;;29.08;15.68;;;10.60;99.90;;;;;;5045056;28;20513;-74
2023/11/01 03:37:06;;;;;;;31.00;15.10;;;10.60;99.90;;;;;;5046428;28;20601;-74
2023/11/01 03:39:33;;;;;;;27.92;15.00;;;10.70;99.90;;;;;;5033634;28;20060;-74
2023/11/01 03:42:04;;;;;;;24.63;14.25;;;10.70;99.90;;;;;;5036359;28;20621;-74
2023/11/01 03:44:33;;;;;;;26.13;14.65;;;10.70;99.90;;;;;;5062781;28;20052;-73
2023/11/01 03:47:01;;;;;;;25.27;14.70;;;10.70;99.90;;;;;;5061321;28;20094;-74
2023/11/01 03:49:29;;;;;;;24.45;13.55;;;10.70;99.90;;;;;;5052480;28;20041;-74
2023/11/01 03:51:57;;;;;;;27.33;14.38;;;10.70;99.90;;;;;;5066134;28;20048;-74
2023/11/01 03:54:24;;;;;;;26.00;13.60;;;10.80;99.90;;;;;;5054216;28;20037;-74
2023/11/01 03:56:51;;;;;;;27.88;14.10;;;10.80;99.90;;;;;;5058465;28;20041;-74
2023/11/01 03:59:17;;;;;;;31.70;14.38;;;10.80;99.90;;;;;;5056283;28;20795;-74
2023/11/01 04:01:43;;;;;;;26.83;13.88;;;10.80;99.90;;;;;;5054780;28;20040;-74
2023/11/01 04:04:09;;;;;;;30.05;13.35;;;10.90;99.90;;;;;;5056853;28;20047;-74
2023/11/01 04:06:37;;;;;;;31.23;13.98;;;11.50;99.90;;;;;;5058488;28;20396;-73
2023/11/01 04:09:02;;;;;;;26.73;13.63;;;10.90;99.90;;;;;;5055215;28;20049;-74
2023/11/01 04:11:29;;;;;;;26.77;13.48;;;10.90;99.90;;;;;;5051995;28;20521;-74
2023/11/01 04:13:54;;;;;;;24.85;13.07;;;10.90;99.90;;;;;;5053788;28;20103;-73
2023/11/01 04:16:20;;;;;;;32.30;13.65;;;11.00;99.90;;;;;;5058758;28;20053;-74
2023/11/01 04:18:46;;;;;;;21.52;12.27;;;11.00;99.90;;;;;;5059569;28;20126;-74
2023/11/01 04:21:12;;;;;;;23.95;12.82;;;11.00;99.90;;;;;;5027070;28;20405;-74
2023/11/01 04:23:38;;;;;;;32.65;12.75;;;11.00;99.90;;;;;;5060767;28;20049;-74
2023/11/01 04:26:06;;;;;;;25.08;12.65;;;11.00;99.90;;;;;;5064157;28;20051;-74
2023/11/01 04:28:32;;;;;;;26.50;12.48;;;11.00;99.90;;;;;;5041437;28;20450;-74
2023/11/01 04:33:26;;;;;;;22.55;12.23;;;11.00;99.90;;;;;;5026568;28;20053;-69
2023/11/01 04:35:54;;;;;;;23.13;12.05;;;11.00;99.90;;;;;;5028173;28;20377;-69
2023/11/01 04:38:21;;;;;;;26.48;11.52;;;11.00;99.90;;;;;;5014094;28;20044;-69
2023/11/01 04:40:49;;;;;;;27.42;12.63;;;11.00;99.90;;;;;;5014761;28;20403;-69
2023/11/01 04:43:15;;;;;;;21.40;11.15;;;11.00;99.90;;;;;;5014871;28;20404;-69
2023/11/01 04:45:40;;;;;;;20.63;10.68;;;11.00;99.90;;;;;;5014221;28;20075;-69
2023/11/01 04:48:06;;;;;;;22.70;10.65;;;11.00;99.90;;;;;;5032349;28;20496;-69
2023/11/01 04:50:32;;;;;;;18.50;10.38;;;11.00;99.90;;;;;;5031577;28;20037;-68
2023/11/01 04:52:57;;;;;;;26.58;10.98;;;10.90;99.90;;;;;;5031203;28;20045;-69
2023/11/01 04:55:23;;;;;;;19.65;10.93;;;11.00;99.90;;;;;;5013844;28;20424;-69
2023/11/01 04:57:49;;;;;;;22.05;10.98;;;10.90;99.90;;;;;;5032050;28;20095;-69
2023/11/01 05:00:18;;;;;;;21.48;10.23;;;11.00;99.90;;;;;;5013616;28;20092;-69
2023/11/01 05:02:47;;;;;;;24.55;10.25;;;10.90;99.90;;;;;;5031614;28;20036;-69
2023/11/01 05:05:13;;;;;;;19.88;9.90;;;10.90;99.90;;;;;;5014135;28;20413;-69
2023/11/01 05:07:39;;;;;;;15.90;9.30;;;10.90;99.90;;;;;;5028827;28;20038;-70
2023/11/01 05:10:06;;;;;;;18.02;9.63;;;10.90;99.90;;;;;;5008432;28;20042;-69
2023/11/01 05:12:32;;;;;;;17.52;9.00;;;10.90;99.90;;;;;;5031835;28;20049;-68
2023/11/01 05:14:58;;;;;;;20.85;9.40;;;10.90;99.90;;;;;;5008081;28;20037;-69
2023/11/01 05:17:23;;;;;;;18.25;8.57;;;10.90;99.90;;;;;;5031461;28;20033;-69
2023/11/01 05:19:49;;;;;;;17.52;8.32;;;10.90;99.90;;;;;;5030326;28;20033;-69
2023/11/01 05:22:16;;;;;;;18.95;9.18;;;10.90;99.90;;;;;;5030405;28;20068;-70
2023/11/01 05:24:46;;;;;;;15.23;7.93;;;10.90;99.90;;;;;;5030431;28;20033;-69
2023/11/01 05:27:12;;;;;;;15.20;7.88;;;11.00;99.90;;;;;;5021801;28;20063;-69
2023/11/01 05:29:38;;;;;;;16.05;8.23;;;10.90;99.90;;;;;;5012856;28;20041;-69
2023/11/01 05:32:03;;;;;;;15.40;7.72;;;10.90;99.90;;;;;;5013137;28;20168;-69
2023/11/01 05:34:29;;;;;;;16.90;7.43;;;10.90;99.90;;;;;;5030372;28;20053;-70
2023/11/01 05:36:55;;;;;;;15.20;7.10;;;10.90;99.90;;;;;;5026677;28;20469;-69
2023/11/01 05:39:20;;;;;;;18.05;7.40;;;10.90;99.90;;;;;;5010824;28;20045;-68
2023/11/01 05:41:46;;;;;;;14.50;6.97;;;10.90;99.90;;;;;;4999215;28;20041;-69
2023/11/01 05:44:12;;;;;;;18.00;6.53;;;10.90;99.90;;;;;;5027629;28;20044;-69
2023/11/01 05:46:38;;;;;;;19.67;8.07;;;11.00;99.90;;;;;;5024057;28;20071;-69
2023/11/01 05:49:04;;;;;;;18.48;7.68;;;10.90;99.90;;;;;;5004066;28;20040;-70
2023/11/01 05:51:30;;;;;;;14.60;6.68;;;10.90;99.90;;;;;;5030489;28;20033;-69
2023/11/01 05:53:55;;;;;;;14.98;6.43;;;10.90;99.90;;;;;;5023172;28;20284;-69
2023/11/01 05:56:23;;;;;;;16.15;6.85;;;10.90;99.90;;;;;;5029018;28;20038;-69
2023/11/01 05:58:49;;;;;;;14.15;6.60;;;11.00;99.90;;;;;;5029743;28;20033;-69
2023/11/01 06:01:14;;;;;;;16.60;6.50;;;11.00;99.90;;;;;;5028532;28;20392;-69
2023/11/01 06:03:40;;;;;;;15.30;6.22;;;11.00;99.90;;;;;;5006578;28;20033;-70
2023/11/01 06:06:06;;;;;;;15.07;6.15;;;11.00;99.90;;;;;;5012327;28;20038;-69
2023/11/01 06:08:32;;;;;;;11.77;6.10;;;11.00;99.90;;;;;;4991688;28;20062;-69
2023/11/01 06:10:57;;;;;;;11.85;6.20;;;11.00;99.90;;;;;;4993573;28;20053;-69
2023/11/01 06:13:23;;;;;;;12.27;6.55;;;11.00;99.90;;;;;;5028594;28;20040;-69
2023/11/01 06:15:49;;;;;;;12.32;6.60;;;11.00;99.90;;;;;;5028401;28;20038;-70
2023/11/01 06:18:15;;;;;;;18.17;6.10;;;11.00;99.90;;;;;;5029716;28;20057;-69
2023/11/01 06:20:41;;;;;;;16.83;6.25;;;11.10;99.90;;;;;;5029718;28;20454;-69
2023/11/01 06:23:10;;;;;;;14.15;7.43;;;11.10;99.90;;;;;;5029262;28;20030;-70
2023/11/01 06:25:39;;;;;;;16.42;6.82;;;11.00;99.90;;;;;;5006471;28;20041;-70
2023/11/01 06:28:04;;;;;;;19.50;7.47;;;11.10;99.90;;;;;;5029428;28;20084;-70
2023/11/01 06:30:30;;;;;;;13.85;6.05;;;11.00;99.90;;;;;;5011929;28;20564;-70
2023/11/01 06:32:56;;;;;;;14.30;6.97;;;11.10;99.90;;;;;;5012110;28;20052;-70
2023/11/01 06:35:21;;;;;;;11.30;6.60;;;11.10;99.90;;;;;;5029595;28;20037;-71
2023/11/01 06:37:48;;;;;;;15.65;7.00;;;11.10;99.90;;;;;;5029852;28;20037;-70
2023/11/01 06:40:14;;;;;;;16.05;6.60;;;11.10;99.90;;;;;;5029302;28;20488;-70
2023/11/01 06:42:40;;;;;;;14.52;6.35;;;11.10;99.90;;;;;;5023605;28;20045;-70
2023/11/01 06:45:06;;;;;;;15.43;7.03;;;11.10;99.90;;;;;;5024456;28;20034;-71
2023/11/01 06:47:32;;;;;;;13.95;6.10;;;11.10;99.90;;;;;;5012580;28;20049;-70
2023/11/01 06:49:57;;;;;;;12.73;6.68;;;11.10;99.90;;;;;;5029647;28;20558;-71
2023/11/01 06:52:23;;;;;;;12.13;6.30;;;11.10;99.90;;;;;;5011436;28;20029;-71
2023/11/01 06:54:48;;;;;;;8.90;5.90;;;11.10;99.90;;;;;;5022678;28;20084;-70
2023/11/01 06:57:14;;;;;;;12.48;5.95;;;11.20;99.90;;;;;;5028649;28;20041;-71
2023/11/01 06:59:39;;;;;;;11.93;5.60;;;11.20;99.90;;;;;;5027640;28;20042;-70
2023/11/01 07:02:06;;;;;;;10.77;6.03;;;11.20;99.90;;;;;;5029532;28;20638;-70
2023/11/01 07:04:32;;;;;;;10.65;5.28;;;11.20;99.90;;;;;;5028259;28;20507;-72
2023/11/01 07:06:58;;;;;;;9.15;5.78;;;11.20;99.90;;;;;;5011884;28;20053;-72
2023/11/01 07:09:24;;;;;;;8.57;5.53;;;11.20;99.90;;;;;;5025015;28;20519;-70
2023/11/01 07:11:50;;;;;;;9.23;5.65;;;11.20;99.90;;;;;;5011961;28;20049;-70
2023/11/01 07:14:16;;;;;;;6.80;4.95;;;11.20;99.90;;;;;;5029797;28;20042;-71
2023/11/01 07:16:42;;;;;;;12.45;5.72;;;11.20;99.90;;;;;;5015078;28;20052;-70
2023/11/01 07:19:08;;;;;;;9.70;4.82;;;11.20;99.90;;;;;;5014757;28;20452;-70
2023/11/01 07:21:33;;;;;;;8.38;4.50;;;11.20;99.90;;;;;;5033495;28;20032;-70
2023/11/01 07:23:59;;;;;;;6.22;4.40;;;11.20;99.90;;;;;;5033183;28;20041;-70
2023/11/01 07:26:25;;;;;;;9.30;4.57;;;11.20;99.90;;;;;;5018350;28;20187;-71
2023/11/01 07:28:51;;;;;;;7.63;4.28;;;11.20;99.90;;;;;;5031304;28;20037;-70
2023/11/01 07:31:17;;;;;;;7.10;3.92;;;11.20;99.90;;;;;;5012199;28;20461;-71
2023/11/01 07:33:43;;;;;;;7.45;4.15;;;11.30;99.90;;;;;;5030238;28;20060;-71
2023/11/01 07:36:10;;;;;;;6.55;4.13;;;11.30;99.90;;;;;;5027633;28;20047;-71
2023/11/01 07:38:36;;;;;;;5.80;3.80;;;11.30;99.90;;;;;;5026851;28;20061;-71
2023/11/01 07:41:02;;;;;;;10.70;4.25;;;11.30;99.90;;;;;;5029140;28;20115;-70
2023/11/01 07:43:28;;;;;;;6.93;3.80;;;11.30;99.90;;;;;;5032555;28;20104;-70
2023/11/01 07:45:53;;;;;;;7.70;3.83;;;11.30;99.90;;;;;;5030534;28;20496;-71
2023/11/01 07:48:19;;;;;;;8.73;4.20;;;11.40;99.90;;;;;;5031442;28;20037;-70
2023/11/01 07:50:45;;;;;;;6.13;3.65;;;11.40;99.90;;;;;;5010941;28;20044;-70
2023/11/01 07:53:10;;;;;;;6.80;4.13;;;11.40;99.90;;;;;;5012057;28;20050;-71
2023/11/01 07:55:36;;;;;;;7.15;4.40;;;11.40;99.90;;;;;;5027667;28;20400;-70
2023/11/01 07:58:02;;;;;;;7.72;4.75;;;11.40;99.90;;;;;;5027882;28;20037;-70
2023/11/01 08:00:27;;;;;;;5.68;4.10;;;11.50;99.90;;;;;;5022281;28;20076;-70
2023/11/01 08:02:53;;;;;;;8.05;4.70;;;11.50;99.90;;;;;;5005014;28;20037;-70
2023/11/01 08:05:19;;;;;;;5.88;4.55;;;11.50;99.90;;;;;;5026059;28;20068;-70
2023/11/01 08:07:45;;;;;;;7.55;4.80;;;11.50;99.90;;;;;;5023652;28;20029;-71
2023/11/01 08:10:11;;;;;;;8.13;4.85;;;11.50;99.90;;;;;;5024792;28;20041;-70
2023/11/01 08:12:37;;;;;;;10.10;4.80;;;11.50;99.90;;;;;;5013657;28;20048;-70
2023/11/01 08:15:03;;;;;;;12.75;5.32;;;11.60;99.90;;;;;;5013913;28;20029;-70
2023/11/01 08:17:29;;;;;;;7.15;5.00;;;11.60;99.90;;;;;;5012573;28;20049;-70
2023/11/01 08:19:54;;;;;;;8.18;5.32;;;11.60;99.90;;;;;;5025918;28;20037;-71
2023/11/01 08:22:20;;;;;;;10.20;6.00;;;11.70;99.90;;;;;;5011083;28;20388;-70
2023/11/01 08:24:45;;;;;;;8.88;5.90;;;11.70;99.90;;;;;;5014641;28;20041;-70
2023/11/01 08:27:11;;;;;;;11.70;7.03;;;11.70;99.90;;;;;;5014261;28;20043;-71
2023/11/01 08:29:41;;;;;;;20.70;7.18;;;11.80;99.90;;;;;;5014046;28;20092;-71
2023/11/01 08:32:07;;;;;;;10.00;6.70;;;11.80;99.90;;;;;;5012309;28;20041;-71
2023/11/01 08:34:33;;;;;;;14.02;7.35;;;11.80;99.90;;;;;;5013914;28;20103;-71
2023/11/01 08:36:59;;;;;;;14.02;7.75;;;11.80;99.90;;;;;;5015697;28;20042;-73
2023/11/01 08:39:24;;;;;;;14.02;7.60;;;11.90;99.90;;;;;;5031748;28;20032;-71
2023/11/01 08:41:50;;;;;;;13.90;7.35;;;12.00;99.90;;;;;;5032869;28;20038;-71
2023/11/01 08:44:15;;;;;;;15.70;8.90;;;11.90;99.90;;;;;;5031970;28;20044;-71
2023/11/01 08:46:41;;;;;;;17.85;8.43;;;12.00;99.90;;;;;;5031858;28;20510;-72
2023/11/01 08:49:07;;;;;;;12.32;8.20;;;12.00;99.90;;;;;;5018964;28;20108;-71
2023/11/01 08:51:32;;;;;;;15.93;8.32;;;12.00;99.90;;;;;;5012627;28;20127;-71
2023/11/01 08:54:00;;;;;;;16.95;8.80;;;12.00;99.90;;;;;;4999295;28;20142;-71
2023/11/01 08:56:26;;;;;;;17.67;8.88;;;12.10;99.90;;;;;;5011228;28;20044;-71
2023/11/01 08:58:52;;;;;;;15.02;8.75;;;12.10;99.90;;;;;;5030010;28;20129;-71
2023/11/01 09:01:18;;;;;;;18.02;8.52;;;12.10;99.90;;;;;;5011570;28;20033;-71
2023/11/01 09:03:44;;;;;;;20.55;8.80;;;12.20;99.90;;;;;;5014400;28;20045;-71
2023/11/01 09:06:09;;;;;;;18.10;8.82;;;12.20;99.90;;;;;;5029788;28;20405;-71
2023/11/01 09:08:35;;;;;;;20.33;8.63;;;12.30;99.90;;;;;;5031430;28;20090;-71
2023/11/01 09:11:00;;;;;;;18.10;9.20;;;12.30;99.90;;;;;;5015063;28;20053;-71
2023/11/01 09:13:26;;;;;;;23.38;8.88;;;12.40;99.90;;;;;;5014030;28;20045;-71
2023/11/01 09:15:52;;;;;;;16.13;7.88;;;12.40;99.90;;;;;;5031851;28;20140;-71
2023/11/01 09:18:17;;;;;;;16.90;6.75;;;12.40;99.90;;;;;;5030489;28;20034;-71
2023/11/01 09:20:43;;;;;;;24.23;8.40;;;12.50;99.90;;;;;;5013726;28;20081;-71
2023/11/01 09:23:08;;;;;;;22.27;7.53;;;12.50;99.90;;;;;;5030914;28;20037;-71
2023/11/01 09:25:34;;;;;;;17.65;7.40;;;12.60;99.90;;;;;;5014025;28;20041;-72
2023/11/01 09:28:00;;;;;;;22.48;7.88;;;12.60;99.90;;;;;;4996503;28;20049;-71
2023/11/01 09:30:25;;;;;;;17.70;7.47;;;12.60;99.90;;;;;;5013173;28;20117;-71
2023/11/01 09:32:51;;;;;;;17.77;6.65;;;12.70;99.90;;;;;;5013751;28;20088;-71
2023/11/01 09:35:17;;;;;;;14.68;6.35;;;12.70;99.90;;;;;;5012836;28;20048;-71
2023/11/01 09:37:42;;;;;;;21.35;7.43;;;12.70;99.90;;;;;;5012987;28;20045;-71
2023/11/01 09:40:12;;;;;;;21.40;6.13;;;12.70;99.90;;;;;;5030357;28;20686;-71
2023/11/01 09:42:38;;;;;;;24.08;6.40;;;12.80;99.90;;;;;;5013503;28;20137;-71
2023/11/01 09:45:10;;;;;;;20.27;6.30;;;12.80;99.90;;;;;;5012995;28;20041;-71
2023/11/01 09:47:37;;;;;;;21.05;6.13;;;12.80;99.90;;;;;;5007094;28;20117;-71
2023/11/01 09:50:05;;;;;;;20.05;6.78;;;12.90;99.90;;;;;;5030363;28;20048;-71
2023/11/01 09:52:31;;;;;;;15.43;6.28;;;12.90;99.90;;;;;;5030615;28;20041;-71
2023/11/01 09:54:56;;;;;;;14.10;5.78;;;12.90;99.90;;;;;;5013117;28;20048;-72
2023/11/01 09:57:24;;;;;;;16.48;6.13;;;12.90;99.90;;;;;;5012523;28;20048;-71
2023/11/01 09:59:51;;;;;;;15.10;5.97;;;12.90;99.90;;;;;;5030252;28;20121;-71
2023/11/01 10:02:17;;;;;;;17.05;5.43;;;13.00;99.90;;;;;;5030786;28;20056;-71
2023/11/01 10:04:43;;;;;;;19.60;6.38;;;13.00;99.90;;;;;;5012845;28;20396;-71
2023/11/01 10:07:10;;;;;;;18.23;5.82;;;13.00;99.90;;;;;;5030786;28;20038;-71
2023/11/01 10:09:37;;;;;;;18.20;5.35;;;13.10;99.90;;;;;;5011116;28;20049;-71
2023/11/01 10:12:08;;;;;;;13.98;5.55;;;13.10;99.90;;;;;;4996274;28;20045;-71
2023/11/01 10:14:35;;;;;;;16.25;5.45;;;13.10;99.90;;;;;;5012721;28;20094;-71
2023/11/01 10:17:00;;;;;;;13.40;5.03;;;13.20;99.90;;;;;;5012732;28;20053;-71
2023/11/01 10:19:27;;;;;;;19.23;5.38;;;13.10;99.90;;;;;;5029582;28;20539;-72
2023/11/01 10:21:53;;;;;;;16.95;5.47;;;13.20;99.90;;;;;;5010214;28;20163;-71
2023/11/01 10:24:21;;;;;;;18.13;5.65;;;13.20;99.90;;;;;;5013211;28;20384;-71
2023/11/01 10:26:47;;;;;;;14.50;5.20;;;13.10;99.90;;;;;;4996421;28;20045;-71
2023/11/01 10:29:12;;;;;;;16.55;5.28;;;13.20;99.90;;;;;;5011885;28;20045;-71
2023/11/01 10:31:38;;;;;;;15.93;5.53;;;13.20;99.90;;;;;;5084851;22;20621;-77
2023/11/01 10:34:14;;;;;;;18.30;6.18;;;13.20;99.90;;;;;;5012966;28;20040;-77
2023/11/01 10:36:52;;;;;;;18.42;5.05;;;13.20;99.90;;;;;;5009830;28;20045;-77
2023/11/01 10:39:19;;;;;;;14.20;5.20;;;13.20;99.90;;;;;;5007372;28;20095;-77
2023/11/01 10:41:55;;;;;;;12.18;4.97;;;13.40;99.90;;;;;;5029722;28;20033;-77
2023/11/01 10:44:22;;;;;;;17.17;5.38;;;13.30;99.90;;;;;;5024113;28;20037;-77
2023/11/01 10:46:49;;;;;;;14.88;5.18;;;13.40;99.90;;;;;;5015255;28;20042;-77
2023/11/01 10:49:15;;;;;;;17.38;5.25;;;13.40;99.90;;;;;;5024565;28;20239;-77
2023/11/01 10:51:42;;;;;;;16.10;5.20;;;13.50;99.90;;;;;;5025470;28;20041;-77
2023/11/01 10:54:08;;;;;;;17.05;4.88;;;13.60;99.90;;;;;;5030267;28;20465;-77
2023/11/01 10:56:35;;;;;;;14.10;5.32;;;13.60;99.90;;;;;;5025859;28;20371;-77
2023/11/01 10:59:12;;;;;;;17.40;4.95;;;13.60;99.90;;;;;;5047460;28;20444;-77
2023/11/01 11:01:58;;;;;;;14.93;4.45;;;13.60;99.90;;;;;;5027138;28;20164;-77
2023/11/01 11:04:30;;;;;;;14.57;4.80;;;13.60;99.90;;;;;;5018167;28;20072;-77
2023/11/01 11:07:18;;;;;;;14.00;4.50;;;13.60;99.90;;;;;;5026574;28;20037;-77
2023/11/01 11:09:43;;;;;;;16.05;4.22;;;13.60;99.90;;;;;;5015840;28;20570;-77
2023/11/01 11:12:21;;;;;;;16.50;4.50;;;13.70;99.90;;;;;;5045107;28;20042;-77
2023/11/01 11:14:51;;;;;;;13.90;4.20;;;13.70;99.90;;;;;;5018279;28;20029;-78
2023/11/01 11:17:23;;;;;;;16.95;4.35;;;13.70;99.90;;;;;;5042267;28;20404;-78
2023/11/01 11:20:09;;;;;;;;;;;13.70;99.90;;;;;;5044548;28;20044;-78
2023/11/01 11:23:03;;;;;;;16.33;3.83;;;13.70;99.90;;;;;;5022204;28;19925;-78
2023/11/01 11:25:38;;;;;;;12.50;3.85;;;13.70;99.90;;;;;;5011707;28;20048;-78
2023/11/01 11:28:11;;;;;;;16.40;3.30;;;13.80;99.90;;;;;;5027940;28;20045;-78
2023/11/01 11:31:15;;;;;;;13.82;3.80;;;14.30;99.90;;;;;;5027261;28;20047;-78
2023/11/01 11:33:47;;;;;;;10.18;3.45;;;13.70;99.90;;;;;;5037210;28;20061;-78
2023/11/01 11:36:26;;;;;;;13.50;3.53;;;13.70;99.90;;;;;;5004225;28;20041;-78
2023/11/01 11:38:56;;;;;;;14.43;3.85;;;13.70;99.90;;;;;;5011073;28;20526;-78
2023/11/01 11:41:28;;;;;;;15.52;3.30;;;13.80;99.90;;;;;;5027494;28;20048;-78
2023/11/01 11:44:04;;;;;;;13.25;3.60;;;13.80;99.90;;;;;;5025635;28;20049;-79
2023/11/01 11:46:39;;;;;;;6.32;3.00;;;13.90;99.90;;;;;;5029679;28;20076;-79
2023/11/01 11:49:07;;;;;;;12.77;3.58;;;13.90;99.90;;;;;;5022677;28;20383;-78
2023/11/01 11:51:34;;;;;;;11.88;3.00;;;14.00;99.90;;;;;;5029615;28;20163;-79
2023/11/01 11:54:10;;;;;;;8.85;2.70;;;14.00;99.90;;;;;;4996405;28;20038;-79
2023/11/01 11:56:36;;;;;;;10.00;2.85;;;14.00;99.90;;;;;;5014566;28;20041;-80
2023/11/01 11:59:03;;;;;;;12.27;2.70;;;13.90;99.90;;;;;;5023287;28;20129;-79
2023/11/01 12:01:29;;;;;;;11.23;2.95;;;14.00;99.90;;;;;;5034340;28;20048;-80
2023/11/01 12:03:56;;;;;;;12.30;2.70;;;14.00;99.90;;;;;;5019329;28;20049;-80
2023/11/01 12:06:24;;;;;;;10.18;2.90;;;14.00;99.90;;;;;;5043615;28;20072;-80
2023/11/01 12:08:50;;;;;;;12.65;3.42;;;14.00;99.90;;;;;;5032302;28;20049;-80
2023/11/01 12:11:16;;;;;;;10.43;3.20;;;14.00;99.90;;;;;;5048824;28;20394;-80
2023/11/01 12:13:47;;;;;;;16.13;2.85;;;14.00;99.90;;;;;;5031518;28;20037;-80
2023/11/01 12:16:27;;;;;;;16.05;3.33;;;14.00;99.90;;;;;;5034448;28;20037;-80
2023/11/01 12:19:18;;;;;;;10.63;2.75;;;14.00;99.90;;;;;;5017523;28;20402;-80
2023/11/01 12:21:55;;;;;;;9.07;2.63;;;14.10;99.90;;;;;;5020923;28;20120;-80
2023/11/01 12:24:23;;;;;;;9.93;2.50;;;13.90;99.90;;;;;;5033309;28;20037;-79
2023/11/01 12:27:09;;;;;;;9.88;2.90;;;14.20;99.90;;;;;;5045011;28;20093;-82
2023/11/01 12:29:51;;;;;;;8.70;2.33;;;14.30;99.90;;;;;;5031447;28;20182;-80
2023/11/01 12:32:19;;;;;;;10.80;2.97;;;14.40;99.90;;;;;;5045087;28;20049;-80
2023/11/01 12:34:47;;;;;;;12.88;2.55;;;14.50;99.90;;;;;;5040857;28;20566;-79
2023/11/01 12:37:20;;;;;;;10.13;2.63;;;14.50;99.90;;;;;;5041234;28;20046;-79